Time;durP1;ratioP1;P1;durP2;ratioP2;P2;SDS_P1;SDS_P2;PMS_P1;PMS_P2;Temp;Humidity;BMP_temperature;BMP_pressure;BME280_temperature;BME280_humidity;BME280_pressure;Samples;Min_cycle;Max_cycle;Signal;HPM_P1;HPM_P2
2022/01/24 00:00:23;;;;;;;7.57;2.92;;;6.30;99.90;;;;;;6254999;22;20008;-79
2022/01/24 00:02:49;;;;;;;5.75;2.33;;;6.30;99.90;;;;;;6282928;22;20004;-80
2022/01/24 00:05:17;;;;;;;9.60;3.22;;;6.30;99.90;;;;;;6284351;22;20415;-80
2022/01/24 00:07:42;;;;;;;10.88;3.65;;;6.30;99.90;;;;;;6284442;22;20007;-79
2022/01/24 00:10:13;;;;;;;9.18;2.88;;;6.30;99.90;;;;;;6279835;22;20007;-79
2022/01/24 00:13:02;;;;;;;8.82;3.53;;;6.30;99.90;;;;;;6250092;22;20049;-79
2022/01/24 00:15:52;;;;;;;7.15;3.08;;;6.30;99.90;;;;;;6277684;22;20002;-79
2022/01/24 00:18:35;;;;;;;8.48;2.92;;;6.30;99.90;;;;;;6255700;22;19996;-79
2022/01/24 00:26:47;;;;;;;8.30;3.53;;;6.30;99.90;;;;;;6278952;22;20070;-79
2022/01/24 00:29:18;;;;;;;10.75;3.83;;;6.30;99.90;;;;;;6277086;22;20004;-78
2022/01/24 00:31:45;;;;;;;10.55;3.63;;;6.30;99.90;;;;;;6249814;22;20000;-78
2022/01/24 00:34:11;;;;;;;12.98;4.55;;;6.30;99.90;;;;;;6277392;22;20007;-79
2022/01/24 00:36:38;;;;;;;10.55;3.78;;;6.30;99.90;;;;;;6250182;22;20336;-78
2022/01/24 00:39:05;;;;;;;11.35;4.00;;;6.30;99.90;;;;;;6250629;22;20014;-78
2022/01/24 00:41:37;;;;;;;11.52;4.30;;;6.30;99.90;;;;;;6251085;22;20003;-79
2022/01/24 00:44:49;;;;;;;7.70;3.35;;;6.30;99.90;;;;;;6277575;22;20010;-79
2022/01/24 00:46:55;;;;;;;10.25;3.42;;;6.30;99.90;;;;;;6256092;22;20015;-79
2022/01/24 00:49:45;;;;;;;9.27;3.83;;;6.20;99.90;;;;;;6250263;22;20067;-79
2022/01/24 00:54:53;;;;;;;11.18;3.75;;;6.20;99.90;;;;;;6276729;22;20026;-78
2022/01/24 00:57:20;;;;;;;11.48;3.35;;;6.20;99.90;;;;;;6251544;22;20086;-79
2022/01/24 00:59:47;;;;;;;10.85;3.78;;;6.20;99.90;;;;;;6278853;22;20493;-79
2022/01/24 01:02:15;;;;;;;11.65;3.92;;;6.20;99.90;;;;;;6279042;22;20053;-79
2022/01/24 01:18:21;;;;;;;8.85;3.97;;;6.10;99.90;;;;;;6280480;22;20015;-79
2022/01/24 01:21:10;;;;;;;11.13;4.57;;;6.10;99.90;;;;;;6253196;22;20000;-77
2022/01/24 01:23:39;;;;;;;12.32;3.83;;;6.10;99.90;;;;;;6282329;22;20004;-79
2022/01/24 01:26:11;;;;;;;12.10;3.88;;;6.10;99.90;;;;;;6226272;22;20022;-75
2022/01/24 01:28:41;;;;;;;9.70;3.83;;;6.10;99.90;;;;;;6251316;22;20050;-76
2022/01/24 01:31:19;;;;;;;12.52;4.85;;;6.10;99.90;;;;;;6278644;22;20006;-76
2022/01/24 01:33:57;;;;;;;12.93;4.60;;;6.10;99.90;;;;;;6278519;22;20427;-76
2022/01/24 01:36:40;;;;;;;12.48;3.70;;;6.10;99.90;;;;;;6278337;22;20339;-75
2022/01/24 01:40:02;;;;;;;14.93;5.80;;;6.10;99.90;;;;;;6279084;22;20370;-75
2022/01/24 01:55:42;;;;;;;17.60;5.65;;;6.10;99.90;;;;;;6288890;22;20031;-76
2022/01/24 01:58:20;;;;;;;18.38;6.38;;;6.10;99.90;;;;;;6251140;22;20007;-78
2022/01/24 02:00:54;;;;;;;21.27;6.95;;;6.10;99.90;;;;;;6278776;22;19996;-77
2022/01/24 02:03:21;;;;;;;18.13;6.65;;;6.10;99.90;;;;;;6278581;22;20023;-78
2022/01/24 02:05:47;;;;;;;16.33;6.28;;;6.10;99.90;;;;;;6250934;22;20046;-78
2022/01/24 02:08:13;;;;;;;18.50;6.72;;;6.10;99.90;;;;;;6250707;22;20423;-77
2022/01/24 02:10:41;;;;;;;16.70;6.10;;;6.10;99.90;;;;;;6278016;22;19995;-77
2022/01/24 02:13:07;;;;;;;20.45;6.82;;;6.10;99.90;;;;;;6251050;22;19995;-77
2022/01/24 02:15:55;;;;;;;16.40;6.35;;;6.10;99.90;;;;;;6250901;22;20057;-77
2022/01/24 02:18:37;;;;;;;16.63;6.32;;;6.10;99.90;;;;;;6250901;22;20004;-77
2022/01/24 02:23:39;;;;;;;14.55;6.22;;;6.10;99.90;;;;;;6277715;22;20386;-77
2022/01/24 02:26:09;;;;;;;17.40;6.45;;;6.10;99.90;;;;;;6250937;22;20053;-76
2022/01/24 02:31:37;;;;;;;17.15;6.55;;;6.00;99.90;;;;;;6277795;22;20451;-77
2022/01/24 02:34:25;;;;;;;18.92;6.85;;;6.00;99.90;;;;;;6250778;22;20030;-77
2022/01/24 02:36:53;;;;;;;16.77;6.53;;;6.00;99.90;;;;;;6250752;22;20057;-76
2022/01/24 02:50:39;;;;;;;21.88;8.07;;;6.00;99.90;;;;;;6278461;22;20035;-76
2022/01/24 02:53:05;;;;;;;26.50;8.68;;;6.00;99.90;;;;;;6250635;22;19995;-77
2022/01/24 02:55:31;;;;;;;23.10;9.38;;;6.00;99.90;;;;;;6277493;22;20007;-77
2022/01/24 02:57:56;;;;;;;19.42;7.95;;;5.90;99.90;;;;;;6277958;22;20080;-76
2022/01/24 03:00:22;;;;;;;20.40;8.43;;;6.00;99.90;;;;;;6277769;22;19999;-76
2022/01/24 03:02:47;;;;;;;25.70;9.63;;;6.00;99.90;;;;;;6278179;22;20079;-76
2022/01/24 03:05:13;;;;;;;25.00;9.75;;;5.90;99.90;;;;;;6250442;22;20008;-76
2022/01/24 03:07:39;;;;;;;28.75;10.25;;;5.90;99.90;;;;;;6250258;22;20423;-77
2022/01/24 03:10:13;;;;;;;26.63;9.95;;;5.90;99.90;;;;;;6250122;22;20335;-76
2022/01/24 03:12:44;;;;;;;26.73;9.90;;;5.90;99.90;;;;;;6250445;22;20438;-76
2022/01/24 03:15:11;;;;;;;24.83;10.18;;;5.90;99.90;;;;;;6277510;22;20459;-76
2022/01/24 03:17:37;;;;;;;28.95;9.85;;;5.90;99.90;;;;;;6250255;22;20000;-76
2022/01/24 03:20:04;;;;;;;27.88;10.25;;;5.90;99.90;;;;;;6277032;22;20011;-76
2022/01/24 03:22:30;;;;;;;24.20;9.60;;;5.90;99.90;;;;;;6277135;22;20018;-76
2022/01/24 03:24:55;;;;;;;27.52;10.32;;;5.90;99.90;;;;;;6277355;22;20459;-79
2022/01/24 03:27:21;;;;;;;26.65;10.68;;;5.80;99.90;;;;;;6277348;22;20007;-75
2022/01/24 03:29:47;;;;;;;25.80;11.38;;;5.90;99.90;;;;;;6250208;22;20004;-78
2022/01/24 03:32:12;;;;;;;25.73;10.57;;;5.80;99.90;;;;;;6277552;22;20483;-79
2022/01/24 03:34:38;;;;;;;22.83;8.88;;;5.80;99.90;;;;;;6277194;22;20017;-76
2022/01/24 03:37:03;;;;;;;26.13;9.25;;;5.80;99.90;;;;;;6277799;22;19996;-76
2022/01/24 03:39:29;;;;;;;28.92;10.90;;;5.80;99.90;;;;;;6277463;22;20390;-78
2022/01/24 03:41:54;;;;;;;27.00;10.55;;;5.80;99.90;;;;;;6277453;22;20489;-77
2022/01/24 03:44:21;;;;;;;24.70;10.05;;;5.80;99.90;;;;;;6277467;22;20327;-77
2022/01/24 03:47:02;;;;;;;29.88;11.48;;;5.80;99.90;;;;;;6250007;22;20054;-76
2022/01/24 03:49:48;;;;;;;29.05;10.57;;;5.80;99.90;;;;;;6277773;22;20006;-76
2022/01/24 03:52:19;;;;;;;33.78;12.25;;;5.80;99.90;;;;;;6249843;22;20026;-76
2022/01/24 03:54:46;;;;;;;31.58;11.20;;;5.80;99.90;;;;;;6249985;22;20316;-76
2022/01/24 03:57:13;;;;;;;31.17;12.52;;;5.80;99.90;;;;;;6277298;22;20411;-77
2022/01/24 03:59:39;;;;;;;31.67;12.40;;;5.80;99.90;;;;;;6249960;22;20338;-77
2022/01/24 04:02:05;;;;;;;31.90;11.93;;;5.80;99.90;;;;;;6276855;22;20079;-76
2022/01/24 04:04:31;;;;;;;31.38;12.52;;;5.70;99.90;;;;;;6276785;22;20079;-76
2022/01/24 04:06:57;;;;;;;32.67;13.32;;;5.70;99.90;;;;;;6249887;22;20093;-76
2022/01/24 04:09:22;;;;;;;32.70;13.35;;;5.70;99.90;;;;;;6249672;22;20012;-77
2022/01/24 04:11:53;;;;;;;36.17;14.25;;;5.70;99.90;;;;;;6276892;22;20003;-77
2022/01/24 04:15:09;;;;;;;34.38;13.27;;;5.70;99.90;;;;;;6277282;22;20045;-76
2022/01/24 04:22:15;;;;;;;35.80;14.43;;;5.70;99.90;;;;;;6277880;22;20019;-76
2022/01/24 04:24:42;;;;;;;32.10;13.20;;;5.70;99.90;;;;;;6249593;22;20053;-76
2022/01/24 04:27:09;;;;;;;35.35;13.32;;;5.60;99.90;;;;;;6277410;22;20000;-76
2022/01/24 04:29:34;;;;;;;36.35;14.00;;;5.70;99.90;;;;;;6276673;22;20373;-75
2022/01/24 04:32:01;;;;;;;34.20;13.25;;;5.60;99.90;;;;;;6276401;22;19996;-76
2022/01/24 04:34:26;;;;;;;35.75;13.55;;;5.60;99.90;;;;;;6277012;22;20035;-77
2022/01/24 04:36:52;;;;;;;29.95;12.73;;;5.60;99.90;;;;;;6249587;22;20010;-76
2022/01/24 04:39:18;;;;;;;34.75;14.30;;;5.60;99.90;;;;;;6276681;22;20027;-77
2022/01/24 04:41:47;;;;;;;34.10;14.05;;;5.60;99.90;;;;;;6249427;22;20007;-77
2022/01/24 04:47:01;;;;;;;34.67;14.55;;;5.50;99.90;;;;;;6276583;22;20011;-75
2022/01/24 04:52:29;;;;;;;39.33;14.68;;;5.60;99.90;;;;;;6276673;22;20014;-76
2022/01/24 04:54:54;;;;;;;34.03;13.63;;;5.50;99.90;;;;;;6276753;22;20007;-77
2022/01/24 04:57:23;;;;;;;37.85;15.05;;;5.60;99.90;;;;;;6276789;22;20000;-77
2022/01/24 04:59:51;;;;;;;34.58;13.30;;;5.50;99.90;;;;;;6249518;22;20000;-77
2022/01/24 05:02:19;;;;;;;35.03;13.85;;;5.50;99.90;;;;;;6249053;22;20004;-77
2022/01/24 05:04:45;;;;;;;34.15;14.85;;;5.50;99.90;;;;;;6277041;22;20004;-77
2022/01/24 05:07:11;;;;;;;35.75;15.43;;;5.50;99.90;;;;;;6276535;22;20334;-77
2022/01/24 05:09:42;;;;;;;38.95;15.20;;;5.50;99.90;;;;;;6276580;22;20006;-77
2022/01/24 05:23:34;;;;;;;37.58;16.75;;;5.50;99.90;;;;;;6276615;22;20026;-76
2022/01/24 05:26:05;;;;;;;35.70;15.57;;;5.50;99.90;;;;;;6249104;22;20398;-76
2022/01/24 05:28:31;;;;;;;39.63;15.32;;;5.50;99.90;;;;;;6276310;22;20007;-76
2022/01/24 05:30:58;;;;;;;38.92;15.60;;;5.50;99.90;;;;;;6276341;22;20313;-76
2022/01/24 05:33:25;;;;;;;41.72;15.30;;;5.40;99.90;;;;;;6249272;22;20007;-76
2022/01/24 05:35:51;;;;;;;33.78;14.07;;;5.40;99.90;;;;;;6276690;22;20335;-76
2022/01/24 05:38:17;;;;;;;36.25;15.07;;;5.40;99.90;;;;;;6276775;22;20501;-76
2022/01/24 05:40:44;;;;;;;35.45;15.00;;;5.40;99.90;;;;;;6249605;22;19999;-78
2022/01/24 05:43:10;;;;;;;38.70;15.77;;;5.40;99.90;;;;;;6250542;22;20424;-76
2022/01/24 05:45:36;;;;;;;39.17;15.98;;;5.40;99.90;;;;;;6251503;22;20034;-76
2022/01/24 05:48:02;;;;;;;34.65;14.10;;;5.40;99.90;;;;;;6278285;22;20004;-78
2022/01/24 05:50:28;;;;;;;35.28;14.50;;;5.40;99.90;;;;;;6251145;22;20011;-78
2022/01/24 05:52:54;;;;;;;40.97;14.80;;;5.40;99.90;;;;;;6251280;22;20581;-77
2022/01/24 05:55:20;;;;;;;39.20;15.60;;;5.40;99.90;;;;;;6251888;22;20035;-77
2022/01/24 05:57:45;;;;;;;35.90;15.50;;;5.40;99.90;;;;;;6278359;22;20331;-77
2022/01/24 06:00:13;;;;;;;39.35;16.08;;;5.40;99.90;;;;;;6278449;22;20004;-77
2022/01/24 06:02:39;;;;;;;34.30;14.27;;;5.40;99.90;;;;;;6251188;22;20078;-77
2022/01/24 06:05:06;;;;;;;35.78;15.07;;;5.50;99.90;;;;;;6251126;22;20010;-77
2022/01/24 06:07:31;;;;;;;34.45;15.32;;;5.50;99.90;;;;;;6278231;22;20004;-77
2022/01/24 06:09:57;;;;;;;36.13;15.80;;;5.40;99.90;;;;;;6278093;22;20011;-76
2022/01/24 06:12:23;;;;;;;36.40;15.82;;;5.80;99.90;;;;;;6278674;22;20011;-77
2022/01/24 06:14:49;;;;;;;40.20;14.60;;;5.40;99.90;;;;;;6278627;22;19996;-77
2022/01/24 06:17:16;;;;;;;32.65;14.55;;;5.40;99.90;;;;;;6251077;22;20027;-76
2022/01/24 06:19:42;;;;;;;33.90;14.25;;;5.40;99.90;;;;;;6278169;22;20058;-76
2022/01/24 06:22:07;;;;;;;35.10;13.77;;;5.40;99.90;;;;;;6278235;22;20435;-77
2022/01/24 06:24:33;;;;;;;34.83;14.52;;;5.40;99.90;;;;;;6279905;22;20356;-76
2022/01/24 06:26:58;;;;;;;31.27;14.02;;;5.40;99.90;;;;;;6278361;22;20064;-76
2022/01/24 06:29:24;;;;;;;33.22;13.73;;;5.40;99.90;;;;;;6277985;22;20038;-76
2022/01/24 06:31:49;;;;;;;30.80;13.07;;;5.40;99.90;;;;;;6251166;22;20083;-77
2022/01/24 06:34:15;;;;;;;31.60;12.85;;;5.40;99.90;;;;;;6250855;22;20003;-77
2022/01/24 06:36:40;;;;;;;32.72;13.48;;;5.40;99.90;;;;;;6252137;22;20007;-75
2022/01/24 06:39:07;;;;;;;36.00;13.55;;;5.40;99.90;;;;;;6250822;22;20008;-75
2022/01/24 06:41:34;;;;;;;32.17;12.77;;;5.40;99.90;;;;;;6278087;22;20012;-75
2022/01/24 06:44:02;;;;;;;27.23;11.18;;;5.40;99.90;;;;;;6277855;22;20121;-74
2022/01/24 06:46:28;;;;;;;23.00;10.70;;;5.40;99.90;;;;;;6250823;22;20052;-75
2022/01/24 06:48:57;;;;;;;26.50;11.43;;;5.30;99.90;;;;;;6277504;22;20004;-74
2022/01/24 06:51:23;;;;;;;;;;;5.30;99.90;;;;;;6250992;22;20007;-73
2022/01/24 06:53:50;;;;;;;26.00;10.75;;;5.30;99.90;;;;;;6251386;22;19906;-75
2022/01/24 06:56:16;;;;;;;26.80;11.23;;;5.30;99.90;;;;;;6277640;22;20000;-74
2022/01/24 06:58:42;;;;;;;25.20;11.15;;;5.30;99.90;;;;;;6277660;22;20485;-74
2022/01/24 07:01:08;;;;;;;26.90;11.05;;;5.30;99.90;;;;;;6250385;22;20082;-74
2022/01/24 07:03:34;;;;;;;28.23;11.02;;;5.30;99.90;;;;;;6277107;22;20090;-75
2022/01/24 07:06:00;;;;;;;29.88;11.77;;;5.30;99.90;;;;;;6277388;22;20312;-74
2022/01/24 07:08:26;;;;;;;27.02;10.88;;;5.30;99.90;;;;;;6250253;22;20000;-74
2022/01/24 07:10:52;;;;;;;29.45;11.60;;;5.30;99.90;;;;;;6277280;22;19995;-74
2022/01/24 07:13:20;;;;;;;26.45;11.60;;;5.20;99.90;;;;;;6277747;22;20006;-74
2022/01/24 07:15:53;;;;;;;25.27;11.23;;;5.20;99.90;;;;;;6277370;22;20000;-75
2022/01/24 07:20:58;;;;;;;28.77;11.82;;;5.20;99.90;;;;;;6284029;22;20031;-75
2022/01/24 07:23:24;;;;;;;25.55;11.10;;;5.20;99.90;;;;;;6277274;22;20015;-75
2022/01/24 07:25:50;;;;;;;26.25;11.70;;;5.20;99.90;;;;;;6277277;22;20137;-74
2022/01/24 07:28:16;;;;;;;25.33;11.55;;;5.20;99.90;;;;;;6277268;22;19996;-75
2022/01/24 07:30:43;;;;;;;27.88;11.52;;;5.20;99.90;;;;;;6277060;22;20003;-75
2022/01/24 07:33:09;;;;;;;29.80;11.52;;;5.20;99.90;;;;;;6277262;22;19995;-75
2022/01/24 07:35:35;;;;;;;25.85;11.43;;;5.20;99.90;;;;;;6277261;22;19999;-75
2022/01/24 07:38:00;;;;;;;26.45;11.07;;;5.20;99.90;;;;;;6277647;22;20048;-75
2022/01/24 07:40:26;;;;;;;24.33;11.38;;;5.20;99.90;;;;;;6277106;22;20003;-75
2022/01/24 07:43:07;;;;;;;26.90;12.13;;;5.20;99.90;;;;;;6277236;22;20142;-77
2022/01/24 07:45:33;;;;;;;28.35;12.05;;;5.20;99.90;;;;;;6277636;22;20075;-76
2022/01/24 07:47:59;;;;;;;30.23;13.27;;;5.20;99.90;;;;;;6277008;22;20085;-76
2022/01/24 07:50:26;;;;;;;29.95;12.73;;;5.20;99.90;;;;;;6250116;22;20078;-77
2022/01/24 07:52:52;;;;;;;31.95;11.80;;;5.20;99.90;;;;;;6250742;22;20035;-75
2022/01/24 07:55:17;;;;;;;31.15;12.20;;;5.30;99.90;;;;;;6276902;22;20000;-75
2022/01/24 07:57:43;;;;;;;30.80;13.32;;;5.20;99.90;;;;;;6276919;22;20045;-73
2022/01/24 08:00:12;;;;;;;28.15;12.88;;;5.30;99.90;;;;;;6249626;22;20006;-75
2022/01/24 08:02:39;;;;;;;33.58;13.70;;;5.30;99.90;;;;;;6277328;22;20312;-74
2022/01/24 08:05:06;;;;;;;37.08;15.05;;;5.30;99.90;;;;;;6277076;22;20126;-75
2022/01/24 08:07:32;;;;;;;33.20;14.23;;;5.30;99.90;;;;;;6250083;22;20534;-75
2022/01/24 08:09:57;;;;;;;38.92;16.60;;;5.30;99.90;;;;;;6250427;22;20027;-75
2022/01/24 08:12:24;;;;;;;36.33;14.30;;;5.30;99.90;;;;;;6277475;22;20000;-75
2022/01/24 08:14:50;;;;;;;36.90;16.15;;;5.30;99.90;;;;;;6250436;22;20461;-75
2022/01/24 08:17:15;;;;;;;34.78;14.52;;;5.30;99.90;;;;;;6277492;22;19995;-75
2022/01/24 08:19:41;;;;;;;32.03;13.63;;;5.30;99.90;;;;;;6277193;22;19999;-74
2022/01/24 08:22:06;;;;;;;37.13;14.73;;;5.30;99.90;;;;;;6250232;22;20014;-75
2022/01/24 08:24:32;;;;;;;30.33;12.32;;;5.30;99.90;;;;;;6250278;22;20011;-74
2022/01/24 08:26:58;;;;;;;35.22;14.77;;;5.30;99.90;;;;;;6250003;22;20502;-74
2022/01/24 08:29:23;;;;;;;33.13;14.20;;;5.30;99.90;;;;;;6249897;22;20003;-75
2022/01/24 08:31:49;;;;;;;34.45;15.68;;;5.30;99.90;;;;;;6249618;22;20335;-76
2022/01/24 08:34:14;;;;;;;34.75;15.13;;;5.30;99.90;;;;;;6250360;22;20004;-76
2022/01/24 08:36:40;;;;;;;35.90;16.00;;;5.30;99.90;;;;;;6249975;22;20039;-77
2022/01/24 08:39:08;;;;;;;36.38;15.90;;;5.30;99.90;;;;;;6277106;22;20000;-76
2022/01/24 08:46:48;;;;;;;38.97;14.65;;;5.40;99.90;;;;;;6288695;22;20015;-76
2022/01/24 08:49:14;;;;;;;36.30;14.85;;;5.40;99.90;;;;;;6277252;22;20004;-76
2022/01/24 08:51:40;;;;;;;40.33;15.32;;;5.40;99.90;;;;;;6249417;22;20451;-76
2022/01/24 08:54:07;;;;;;;42.53;16.13;;;5.40;99.90;;;;;;6277165;22;20423;-76
2022/01/24 08:56:33;;;;;;;40.47;15.73;;;5.40;99.90;;;;;;6276783;22;20079;-76
2022/01/24 08:58:59;;;;;;;38.97;16.13;;;5.40;99.90;;;;;;6277200;22;20004;-77
2022/01/24 09:01:25;;;;;;;37.38;15.45;;;5.40;99.90;;;;;;6249668;22;20026;-76
2022/01/24 09:03:51;;;;;;;40.78;16.05;;;5.50;99.90;;;;;;6249793;22;20439;-77
2022/01/24 09:06:18;;;;;;;40.60;15.57;;;5.50;99.90;;;;;;6277019;22;20000;-77
2022/01/24 09:08:44;;;;;;;35.83;15.00;;;5.50;99.90;;;;;;6249954;22;20407;-77
2022/01/24 09:11:10;;;;;;;38.45;16.27;;;5.50;99.90;;;;;;6277013;22;20336;-77
2022/01/24 09:13:36;;;;;;;40.67;16.25;;;5.50;99.90;;;;;;6250586;22;20004;-75
2022/01/24 09:16:02;;;;;;;41.95;16.25;;;5.60;99.90;;;;;;6251244;22;20057;-76
2022/01/24 09:18:29;;;;;;;40.60;16.42;;;5.60;99.90;;;;;;6279370;22;20000;-75
2022/01/24 09:20:58;;;;;;;38.28;16.17;;;5.60;99.90;;;;;;6280401;22;20000;-75
2022/01/24 09:23:24;;;;;;;32.63;13.65;;;5.60;99.90;;;;;;6253129;22;20004;-74
2022/01/24 09:25:51;;;;;;;29.75;13.20;;;5.70;99.90;;;;;;6251876;22;19996;-75
2022/01/24 09:28:16;;;;;;;32.78;12.45;;;5.70;99.90;;;;;;6278971;22;19996;-73
2022/01/24 09:30:42;;;;;;;29.65;12.10;;;5.70;99.90;;;;;;6251303;22;20007;-74
2022/01/24 09:33:11;;;;;;;31.77;13.15;;;5.70;99.90;;;;;;6278661;22;20007;-73
2022/01/24 09:35:38;;;;;;;31.17;11.82;;;5.70;99.90;;;;;;6279341;22;20000;-73
2022/01/24 09:38:05;;;;;;;26.17;10.70;;;5.70;99.90;;;;;;6278655;22;20027;-73
2022/01/24 09:40:32;;;;;;;24.35;10.68;;;5.80;99.90;;;;;;6278162;22;20000;-76
2022/01/24 09:42:58;;;;;;;21.95;10.15;;;5.70;99.90;;;;;;6278834;22;20000;-74
2022/01/24 09:45:24;;;;;;;21.88;9.70;;;5.80;99.90;;;;;;6278922;22;20004;-74
2022/01/24 09:47:52;;;;;;;20.50;9.82;;;5.80;99.90;;;;;;6279489;22;20077;-74
2022/01/24 09:50:20;;;;;;;25.67;10.07;;;5.80;99.90;;;;;;6278432;22;20494;-73
2022/01/24 09:52:48;;;;;;;25.50;10.38;;;5.80;99.90;;;;;;6278434;22;19995;-74
2022/01/24 09:55:16;;;;;;;21.05;9.80;;;5.80;99.90;;;;;;6251439;22;20339;-74
2022/01/24 09:57:42;;;;;;;26.90;10.55;;;6.10;99.90;;;;;;6251165;22;20023;-74
2022/01/24 10:00:11;;;;;;;22.65;10.15;;;5.90;99.90;;;;;;6251197;22;20004;-73
2022/01/24 10:02:37;;;;;;;29.73;11.90;;;5.80;99.90;;;;;;6251288;22;20431;-73
2022/01/24 10:05:15;;;;;;;25.25;11.05;;;5.90;99.90;;;;;;6278382;22;20010;-73
2022/01/24 10:07:58;;;;;;;24.65;11.60;;;5.90;99.90;;;;;;6279413;22;20077;-73
2022/01/24 10:10:28;;;;;;;28.30;10.75;;;5.90;99.90;;;;;;6251052;22;19999;-73
2022/01/24 10:18:05;;;;;;;23.13;10.48;;;5.90;99.90;;;;;;6278854;22;20508;-74
2022/01/24 10:20:37;;;;;;;28.73;11.30;;;5.80;99.90;;;;;;6278731;22;20000;-74
2022/01/24 10:23:16;;;;;;;25.25;11.70;;;5.90;99.90;;;;;;6251029;22;20019;-73
2022/01/24 10:25:50;;;;;;;;;;;5.90;99.90;;;;;;6251811;22;20007;-73
2022/01/24 10:28:28;;;;;;;26.27;10.45;;;6.00;99.90;;;;;;6278624;22;19906;-74
2022/01/24 10:31:10;;;;;;;23.38;10.23;;;9.60;99.90;;;;;;6278258;22;20057;-74
2022/01/24 10:34:10;;;;;;;18.27;8.75;;;6.00;99.90;;;;;;6277945;22;20000;-74
2022/01/24 10:36:51;;;;;;;22.25;10.13;;;6.00;99.90;;;;;;6271777;22;20506;-73
2022/01/24 10:42:31;;;;;;;22.88;10.77;;;6.00;99.90;;;;;;6280277;22;20008;-73
2022/01/24 10:45:14;;;;;;;24.75;10.88;;;5.90;99.90;;;;;;6250994;22;19999;-74
2022/01/24 10:47:45;;;;;;;23.15;10.40;;;5.90;99.90;;;;;;6278165;22;20006;-73
2022/01/24 10:50:25;;;;;;;22.05;9.68;;;5.90;99.90;;;;;;6277856;22;20057;-73
2022/01/24 10:52:52;;;;;;;24.90;10.25;;;6.00;99.90;;;;;;6277760;22;20327;-74
2022/01/24 10:55:26;;;;;;;23.60;10.30;;;6.00;99.90;;;;;;6278264;22;20122;-73
2022/01/24 10:58:15;;;;;;;25.05;10.60;;;6.00;99.90;;;;;;6250957;22;20000;-74
2022/01/24 11:00:41;;;;;;;23.20;9.52;;;6.10;99.90;;;;;;6277904;22;20011;-73
2022/01/24 11:03:14;;;;;;;21.55;10.48;;;6.10;99.90;;;;;;6277749;22;20034;-74
2022/01/24 11:05:41;;;;;;;23.60;9.82;;;6.10;99.90;;;;;;6250687;22;20012;-74
2022/01/24 11:08:15;;;;;;;23.75;9.50;;;6.10;99.90;;;;;;6277743;22;20435;-74
2022/01/24 11:10:44;;;;;;;21.92;10.70;;;6.10;99.90;;;;;;6277478;22;20008;-73
2022/01/24 11:13:10;;;;;;;;;;;6.10;99.90;;;;;;6278788;22;20000;-73
2022/01/24 11:15:44;;;;;;;23.20;9.15;;;6.10;99.90;;;;;;6250767;22;19899;-73
2022/01/24 11:18:14;;;;;;;25.88;11.07;;;6.10;99.90;;;;;;6250569;22;19996;-74
2022/01/24 11:20:45;;;;;;;22.17;9.77;;;6.20;99.90;;;;;;6250687;22;20012;-74
2022/01/24 11:23:11;;;;;;;22.60;10.43;;;6.20;99.90;;;;;;6250523;22;20070;-74
2022/01/24 11:25:43;;;;;;;22.52;9.57;;;6.20;99.90;;;;;;6277943;22;20008;-74
2022/01/24 11:28:10;;;;;;;20.98;9.38;;;6.20;99.90;;;;;;6250881;22;20347;-74
2022/01/24 11:31:06;;;;;;;25.10;10.77;;;6.10;99.90;;;;;;6250423;22;20091;-73
2022/01/24 11:33:41;;;;;;;23.30;9.57;;;6.10;99.90;;;;;;6201334;22;20376;-74
2022/01/24 11:36:08;;;;;;;22.98;9.85;;;6.10;99.90;;;;;;6277630;22;20421;-73
2022/01/24 11:38:35;;;;;;;20.60;9.15;;;6.20;99.90;;;;;;6277802;22;19996;-74
2022/01/24 11:41:33;;;;;;;21.65;9.48;;;6.20;99.90;;;;;;6277469;22;20000;-74
2022/01/24 11:44:08;;;;;;;24.25;9.15;;;6.20;99.90;;;;;;6250368;22;20496;-74
2022/01/24 11:46:44;;;;;;;20.85;9.73;;;6.20;99.90;;;;;;6250237;22;20030;-74
2022/01/24 11:49:12;;;;;;;23.00;9.18;;;6.20;99.90;;;;;;6251363;22;20004;-74
2022/01/24 11:51:39;;;;;;;20.63;9.60;;;6.20;99.90;;;;;;6277084;22;20026;-73
2022/01/24 11:54:32;;;;;;;19.27;9.00;;;6.30;99.90;;;;;;6277209;22;19996;-74
2022/01/24 11:57:16;;;;;;;19.35;9.00;;;6.30;99.90;;;;;;6250296;22;20026;-73
2022/01/24 11:59:46;;;;;;;22.33;9.70;;;6.30;99.90;;;;;;6250260;22;20011;-74
2022/01/24 12:02:17;;;;;;;23.83;10.63;;;6.30;99.90;;;;;;6277078;22;20003;-74
2022/01/24 12:04:55;;;;;;;19.98;10.02;;;6.40;99.90;;;;;;6277918;22;20153;-73
2022/01/24 12:07:22;;;;;;;18.58;9.10;;;6.40;99.90;;;;;;6277490;22;20052;-74
2022/01/24 12:09:48;;;;;;;24.90;9.85;;;6.40;99.90;;;;;;6276900;22;19999;-73
2022/01/24 12:12:50;;;;;;;18.65;9.23;;;6.40;99.90;;;;;;6249784;22;19996;-73
2022/01/24 12:15:40;;;;;;;19.60;8.95;;;6.40;99.90;;;;;;6276947;22;20028;-74
2022/01/24 12:18:26;;;;;;;22.63;8.75;;;6.30;99.90;;;;;;6276938;22;20003;-73
2022/01/24 12:21:19;;;;;;;18.40;8.73;;;6.40;99.90;;;;;;6250245;22;20031;-73
2022/01/24 12:23:47;;;;;;;18.27;8.48;;;6.40;99.90;;;;;;6277792;22;20012;-74
2022/01/24 12:26:12;;;;;;;19.50;9.25;;;6.40;99.90;;;;;;6249962;22;20173;-73
2022/01/24 12:28:41;;;;;;;18.33;8.20;;;6.40;99.90;;;;;;6276880;22;20066;-74
2022/01/24 12:31:37;;;;;;;18.88;8.55;;;6.40;99.90;;;;;;6276981;22;20000;-74
2022/01/24 12:34:08;;;;;;;17.65;8.50;;;6.40;99.90;;;;;;6264614;22;20015;-74
2022/01/24 12:36:53;;;;;;;16.73;8.52;;;6.40;99.90;;;;;;6255436;22;20016;-80
2022/01/24 12:39:50;;;;;;;16.52;7.97;;;6.40;99.90;;;;;;6255657;22;20324;-79
2022/01/24 12:42:32;;;;;;;20.08;8.05;;;6.40;99.90;;;;;;6278219;22;19999;-78
2022/01/24 12:48:14;;;;;;;18.08;8.10;;;6.30;99.90;;;;;;6282933;22;20102;-79
2022/01/24 12:50:54;;;;;;;19.55;8.15;;;6.20;99.90;;;;;;6251025;22;20004;-79
2022/01/24 12:53:21;;;;;;;18.13;8.02;;;6.10;99.90;;;;;;6250305;22;20027;-78
2022/01/24 12:56:00;;;;;;;17.70;7.93;;;6.10;99.90;;;;;;6278691;22;20312;-78
2022/01/24 12:58:49;;;;;;;15.98;7.40;;;6.10;99.90;;;;;;6251393;22;20000;-78
2022/01/24 13:01:32;;;;;;;17.73;7.65;;;6.10;99.90;;;;;;6277042;22;20000;-78
2022/01/24 13:04:08;;;;;;;17.40;7.47;;;6.10;99.90;;;;;;6278752;22;19996;-79
2022/01/24 13:06:36;;;;;;;15.77;7.38;;;6.10;99.90;;;;;;6279291;22;20346;-80
2022/01/24 13:09:14;;;;;;;21.10;7.43;;;6.10;99.90;;;;;;6251519;22;20054;-79
2022/01/24 13:11:48;;;;;;;14.55;7.85;;;6.20;99.90;;;;;;6250146;22;20004;-78
2022/01/24 13:14:24;;;;;;;15.93;6.80;;;6.20;99.90;;;;;;6278707;22;20477;-78
2022/01/24 13:25:11;;;;;;;17.30;6.95;;;6.30;99.90;;;;;;6287826;22;20018;-77
2022/01/24 13:27:45;;;;;;;14.32;7.07;;;6.30;99.90;;;;;;6277959;22;20361;-77
2022/01/24 13:30:32;;;;;;;18.15;7.18;;;6.30;99.90;;;;;;6250072;22;20047;-76
2022/01/24 13:33:00;;;;;;;17.52;6.32;;;6.30;99.90;;;;;;6249890;22;19996;-77
2022/01/24 13:35:37;;;;;;;15.95;7.28;;;6.30;99.90;;;;;;6277118;22;19996;-72
2022/01/24 13:38:10;;;;;;;13.55;6.40;;;6.30;99.90;;;;;;6276389;22;20074;-72
2022/01/24 13:40:54;;;;;;;13.88;5.72;;;6.30;99.90;;;;;;6276083;22;20007;-73
2022/01/24 13:43:38;;;;;;;15.38;6.97;;;6.30;99.90;;;;;;6277120;22;20004;-73
2022/01/24 13:46:24;;;;;;;14.98;6.97;;;6.30;99.90;;;;;;6278632;22;20419;-77
2022/01/24 13:48:58;;;;;;;14.43;6.43;;;6.30;99.90;;;;;;6250898;22;20004;-78
2022/01/24 13:51:38;;;;;;;15.00;6.13;;;6.30;99.90;;;;;;6277447;22;20000;-77
2022/01/24 13:54:09;;;;;;;15.32;6.75;;;6.30;99.90;;;;;;6251246;22;20007;-76
2022/01/24 13:56:39;;;;;;;15.18;6.35;;;6.30;99.90;;;;;;6250966;22;20347;-76
2022/01/24 13:59:19;;;;;;;14.50;6.47;;;6.20;99.90;;;;;;6278236;22;20027;-77
2022/01/24 14:01:59;;;;;;;15.13;6.68;;;6.20;99.90;;;;;;6250470;22;20008;-79
2022/01/24 14:04:30;;;;;;;14.48;6.70;;;6.20;99.90;;;;;;6253244;22;20451;-79
2022/01/24 14:06:58;;;;;;;15.95;6.45;;;6.20;99.90;;;;;;6254520;22;19999;-79
2022/01/24 14:09:32;;;;;;;12.35;5.35;;;6.20;99.90;;;;;;6254033;22;20011;-79
2022/01/24 14:11:58;;;;;;;12.35;5.70;;;6.20;99.90;;;;;;6280281;22;20106;-78
2022/01/24 14:14:38;;;;;;;13.52;5.60;;;6.10;99.90;;;;;;6282191;22;20463;-83
2022/01/24 14:17:19;;;;;;;12.18;5.07;;;6.10;99.90;;;;;;6254651;22;20077;-82
2022/01/24 14:19:55;;;;;;;17.25;6.05;;;6.10;99.90;;;;;;6280838;22;20366;-82
2022/01/24 14:22:21;;;;;;;14.85;5.93;;;6.10;99.90;;;;;;6254514;22;20011;-81
2022/01/24 14:24:50;;;;;;;12.77;5.97;;;6.10;99.90;;;;;;6254251;22;20006;-83
2022/01/24 14:27:35;;;;;;;12.65;5.85;;;6.10;99.90;;;;;;6280581;22;20000;-81
2022/01/24 14:30:11;;;;;;;15.60;6.70;;;6.10;99.90;;;;;;6281993;22;19999;-80
2022/01/24 14:32:57;;;;;;;15.77;6.68;;;6.10;99.90;;;;;;6281551;22;20125;-81
2022/01/24 14:35:23;;;;;;;14.98;7.05;;;6.00;99.90;;;;;;6254671;22;20010;-82
2022/01/24 14:38:00;;;;;;;16.88;7.22;;;6.00;99.90;;;;;;6282100;22;20075;-80
2022/01/24 14:40:49;;;;;;;15.88;6.65;;;6.00;99.90;;;;;;6282250;22;20004;-81
2022/01/24 14:46:06;;;;;;;17.35;6.78;;;6.00;99.90;;;;;;6286262;22;19906;-80